Friday, November 16, 2018, 1:11 AM GMT
Back to Local

CYFC, Fredericton, N. B.

Location: , , Canada Lat: 45.867
Local Time: 1:11 AM GMT ( 1:11 GMT) Lon: -66.533
Time Zone: GMT Elev: 55 ft

Show me the last for .
Show Coded

Time T Td Feel RH Dir Speed Gust Alt SLP Vis Weather Sky Remarks
2018-11-16 00:00 18 14 - 85 Variable 2 - 30.44 30.45 9 CLR None
2018-11-15 23:00 18 12 - 78 Variable 2 - 30.46 30.47 9 CLR None
2018-11-15 22:00 18 12 11 78 220° 5 - 30.48 30.49 9 CLR None
2018-11-15 21:00 23 10 17 57 270° 5 - 30.49 30.50 9 CLR Pressure rising rapidly
2018-11-15 20:00 25 10 16 53 290° 8 - 30.47 30.48 9 CLR None
2018-11-15 19:00 25 10 18 53 270° 6 - 30.45 30.46 9 CLR None
2018-11-15 18:00 27 10 16 49 280° 12 - 30.47 30.47 9 CLR None
2018-11-15 17:00 25 9 11 49 280° 13 20 30.45 30.46 9 CLR None
2018-11-15 16:00 23 9 8 53 300° 13 20 30.46 30.47 9 CLR Pressure falling rapidly
2018-11-15 15:00 21 9 12 57 310° 8 - 30.49 30.50 9 CLR None
2018-11-15 14:00 18 9 2 67 300° 13 18 30.50 30.51 9 CLR None
2018-11-15 13:00 14 7 -3 72 300° 9 17 30.51 30.52 9 CLR None
2018-11-15 12:00 14 7 -3 72 280° 12 20 30.52 30.53 9 CLR None
2018-11-15 11:00 12 7 1 78 270° 8 - 30.50 30.51 9 CLR None
2018-11-15 10:00 14 7 4 72 250° 7 - 30.48 30.49 9 CLR None
2018-11-15 09:00 14 7 -3 72 280° 9 17 30.44 30.45 9 CLR None
2018-11-15 08:00 14 7 -3 72 290° 8 18 30.42 30.42 9 CLR None
2018-11-15 07:00 16 7 -2 66 280° 10 21 30.39 30.40 9 CLR None
2018-11-15 06:00 16 7 -3 66 300° 16 24 30.35 30.35 9 CLR Pressure rising rapidly
2018-11-15 05:00 16 9 -2 72 290° 13 21 30.31 30.32 9 CLR None
2018-11-15 04:00 16 9 -2 72 270° 13 22 30.28 30.29 9 CLR Pressure rising rapidly
2018-11-15 03:00 16 7 -2 66 290° 14 22 30.21 30.22 9 CLR None
2018-11-15 02:00 16 7 -2 66 290° 13 22 30.22 30.23 9 CLR None

Support USWX by starting your Amazon purchase here.